createdAt,value
2023-02-24T00:00:16.561Z,989.00
2023-02-24T00:01:16.551Z,989.02
2023-02-24T00:03:41.541Z,988.97
2023-02-24T00:04:41.502Z,989.11
2023-02-24T00:05:41.477Z,989.06
2023-02-24T00:06:41.459Z,988.99
2023-02-24T00:07:41.456Z,989.00
2023-02-24T00:08:41.978Z,988.96
2023-02-24T00:20:26.532Z,988.89
2023-02-24T00:20:45.894Z,988.91
2023-02-24T00:21:45.927Z,988.83
2023-02-24T00:22:45.893Z,988.85
2023-02-24T00:23:45.861Z,988.83
2023-02-24T00:24:45.862Z,988.84
2023-02-24T00:25:45.848Z,988.83
2023-02-24T00:26:45.930Z,988.77
2023-02-24T00:27:45.824Z,988.78
2023-02-24T00:28:45.811Z,988.82
2023-02-24T00:29:45.844Z,988.79
2023-02-24T00:30:45.808Z,988.78
2023-02-24T00:31:45.965Z,988.69
2023-02-24T00:32:45.919Z,988.72
2023-02-24T00:33:45.770Z,988.68
2023-02-24T00:34:45.768Z,988.70
2023-02-24T00:35:45.753Z,988.64
2023-02-24T00:36:45.739Z,988.67
2023-02-24T00:37:45.729Z,988.66
2023-02-24T00:38:45.719Z,988.65
2023-02-24T00:39:45.721Z,988.58
2023-02-24T00:40:45.697Z,988.61
2023-02-24T00:41:45.687Z,988.62
2023-02-24T00:42:45.680Z,988.60
2023-02-24T00:43:45.665Z,988.67
2023-02-24T00:44:45.674Z,988.55
2023-02-24T00:45:45.660Z,988.54
2023-02-24T00:46:45.629Z,988.60
2023-02-24T00:47:45.639Z,988.50
2023-02-24T00:48:45.611Z,988.44
2023-02-24T00:49:45.617Z,988.39
2023-02-24T00:50:45.592Z,988.48
2023-02-24T00:51:45.593Z,988.48
2023-02-24T00:52:45.570Z,988.46
2023-02-24T00:53:45.569Z,988.45
2023-02-24T00:54:45.567Z,988.37
2023-02-24T00:55:45.544Z,988.40
2023-02-24T00:56:45.601Z,988.42
2023-02-24T00:57:45.516Z,988.39
2023-02-24T00:58:45.545Z,988.39
2023-02-24T00:59:45.520Z,988.38
2023-02-24T01:00:45.489Z,988.37
2023-02-24T01:01:45.532Z,988.35
2023-02-24T01:02:45.464Z,988.38
2023-02-24T01:03:45.491Z,988.33
2023-02-24T01:04:45.484Z,988.37
2023-02-24T01:05:45.444Z,988.30
2023-02-24T01:06:45.428Z,988.28
2023-02-24T01:07:45.454Z,988.25
2023-02-24T01:08:45.413Z,988.25
2023-02-24T01:09:45.435Z,988.26
2023-02-24T01:10:45.447Z,988.24
2023-02-24T01:11:45.381Z,988.30
2023-02-24T01:12:45.380Z,988.37
2023-02-24T01:13:45.355Z,988.24
2023-02-24T01:14:45.383Z,988.23
2023-02-24T01:15:45.409Z,988.20
2023-02-24T01:16:45.333Z,988.14
2023-02-24T01:17:45.311Z,988.16
2023-02-24T01:18:45.304Z,988.12
2023-02-24T01:19:45.283Z,988.07
2023-02-24T01:20:45.283Z,988.06
2023-02-24T01:21:45.266Z,988.10
2023-02-24T01:22:45.258Z,988.08
2023-02-24T01:23:45.249Z,988.05
2023-02-24T01:24:45.258Z,988.07
2023-02-24T01:25:45.273Z,988.07
2023-02-24T01:26:45.230Z,988.02
2023-02-24T01:27:45.208Z,988.01
2023-02-24T01:28:45.197Z,988.05
2023-02-24T01:29:45.201Z,988.01
2023-02-24T01:30:45.187Z,987.98
2023-02-24T01:31:47.316Z,987.96
2023-02-24T01:32:45.354Z,987.93
2023-02-24T01:33:45.159Z,987.94
2023-02-24T01:34:45.135Z,987.98
2023-02-24T01:35:45.129Z,988.01
2023-02-24T01:36:45.108Z,987.89
2023-02-24T01:37:45.101Z,987.87
2023-02-24T01:38:45.088Z,987.89
2023-02-24T01:39:45.085Z,987.83
2023-02-24T01:40:45.077Z,987.81
2023-02-24T01:41:45.111Z,987.81
2023-02-24T01:42:45.052Z,987.80
2023-02-24T01:43:45.045Z,987.80
2023-02-24T01:44:45.032Z,987.81
2023-02-24T01:45:45.044Z,987.82
2023-02-24T01:46:45.057Z,987.73
2023-02-24T01:47:45.002Z,987.78
2023-02-24T01:48:45.006Z,987.72
2023-02-24T01:49:44.993Z,987.80
2023-02-24T01:50:44.986Z,987.74
2023-02-24T01:51:44.961Z,987.72
2023-02-24T01:52:44.955Z,987.80
2023-02-24T01:53:44.957Z,987.77
2023-02-24T01:54:44.929Z,987.65
2023-02-24T01:55:44.928Z,987.72
2023-02-24T01:56:44.911Z,987.70
2023-02-24T01:57:44.940Z,987.78
2023-02-24T01:58:44.887Z,987.71
2023-02-24T01:59:44.925Z,987.68
2023-02-24T02:00:44.926Z,987.75
2023-02-24T02:01:44.946Z,987.68
2023-02-24T02:02:45.031Z,987.64
2023-02-24T02:03:44.850Z,987.69
2023-02-24T02:04:44.849Z,987.66
2023-02-24T02:05:44.837Z,987.62
2023-02-24T02:06:44.805Z,987.59
2023-02-24T02:07:44.798Z,987.55
2023-02-24T02:08:44.792Z,987.59
2023-02-24T02:09:44.781Z,987.58
2023-02-24T02:10:44.784Z,987.60
2023-02-24T02:11:44.754Z,987.60
2023-02-24T02:12:44.969Z,987.51
2023-02-24T02:13:44.793Z,987.48
2023-02-24T02:14:44.730Z,987.51
2023-02-24T02:15:44.734Z,987.55
2023-02-24T02:16:44.693Z,987.43
2023-02-24T02:17:44.687Z,987.49
2023-02-24T02:18:44.685Z,987.48
2023-02-24T02:19:44.674Z,987.47
2023-02-24T02:20:44.693Z,987.52
2023-02-24T02:21:44.654Z,987.42
2023-02-24T02:22:44.647Z,987.34
2023-02-24T02:23:44.632Z,987.33
2023-02-24T02:24:44.627Z,987.36
2023-02-24T02:25:44.628Z,987.38
2023-02-24T02:26:44.600Z,987.32
2023-02-24T02:27:44.583Z,987.36
2023-02-24T02:28:44.578Z,987.24
2023-02-24T02:29:44.577Z,987.23
2023-02-24T02:30:44.659Z,987.22
2023-02-24T02:31:44.715Z,987.20
2023-02-24T02:32:44.672Z,987.16
2023-02-24T02:33:44.538Z,987.17
2023-02-24T02:34:44.515Z,987.17
2023-02-24T02:35:44.510Z,987.16
2023-02-24T02:36:44.505Z,987.12
2023-02-24T02:37:44.488Z,987.20
2023-02-24T02:38:44.477Z,987.13
2023-02-24T02:39:44.475Z,987.13
2023-02-24T02:40:44.461Z,987.12
2023-02-24T02:41:44.458Z,987.09
2023-02-24T02:42:44.451Z,987.08
2023-02-24T02:43:44.422Z,987.07
2023-02-24T02:44:44.416Z,986.97
2023-02-24T02:45:44.434Z,986.98
2023-02-24T02:46:44.414Z,986.97
2023-02-24T02:47:44.387Z,986.99
2023-02-24T02:48:44.371Z,986.94
2023-02-24T02:49:44.379Z,986.93
2023-02-24T02:50:44.343Z,986.94
2023-02-24T02:51:44.347Z,986.94
2023-02-24T02:52:44.326Z,986.89
2023-02-24T02:53:44.308Z,986.95
2023-02-24T02:54:44.298Z,986.99
2023-02-24T02:55:44.294Z,987.01
2023-02-24T02:56:44.287Z,986.99
2023-02-24T02:57:44.274Z,986.94
2023-02-24T02:58:44.252Z,987.06
2023-02-24T02:59:44.242Z,987.01
2023-02-24T03:00:44.250Z,987.06
2023-02-24T03:01:44.234Z,987.04
2023-02-24T03:02:44.212Z,986.98
2023-02-24T03:03:44.202Z,987.02
2023-02-24T03:04:44.289Z,986.97
2023-02-24T03:05:44.189Z,986.94
2023-02-24T03:06:44.182Z,986.98
2023-02-24T03:07:44.160Z,986.96
2023-02-24T03:08:44.161Z,987.02
2023-02-24T03:09:44.131Z,986.94
2023-02-24T03:10:44.126Z,986.90
2023-02-24T03:11:44.130Z,986.84
2023-02-24T03:12:44.103Z,986.91
2023-02-24T03:13:44.100Z,986.88
2023-02-24T03:14:44.083Z,986.88
2023-02-24T03:15:44.078Z,986.85
2023-02-24T03:16:44.159Z,986.82
2023-02-24T03:17:44.059Z,986.83
2023-02-24T03:18:44.040Z,986.88
2023-02-24T03:19:44.028Z,986.74
2023-02-24T03:20:44.020Z,986.80
2023-02-24T03:21:44.012Z,986.77
2023-02-24T03:22:44.032Z,986.79
2023-02-24T03:23:43.990Z,986.72
2023-02-24T03:24:43.978Z,986.68
2023-02-24T03:25:43.979Z,986.66
2023-02-24T03:26:44.013Z,986.71
2023-02-24T03:27:43.962Z,986.72
2023-02-24T03:28:43.937Z,986.72
2023-02-24T03:29:43.931Z,986.76
2023-02-24T03:30:43.985Z,986.64
2023-02-24T03:31:44.097Z,986.60
2023-02-24T03:32:44.282Z,986.69
2023-02-24T03:33:43.904Z,986.68
2023-02-24T03:34:43.883Z,986.59
2023-02-24T03:35:43.869Z,986.63
2023-02-24T03:36:43.865Z,986.64
2023-02-24T03:37:43.870Z,986.60
2023-02-24T03:38:43.840Z,986.59
2023-02-24T03:39:43.820Z,986.58
2023-02-24T03:40:43.839Z,986.61
2023-02-24T03:41:45.027Z,986.65
2023-02-24T03:42:45.029Z,986.55
2023-02-24T03:43:45.001Z,986.51
2023-02-24T03:44:44.979Z,986.47
2023-02-24T03:45:44.992Z,986.50
2023-02-24T03:46:44.994Z,986.52
2023-02-24T03:47:44.927Z,986.46
2023-02-24T03:48:44.911Z,986.44
2023-02-24T03:49:44.923Z,986.47
2023-02-24T03:50:44.877Z,986.38
2023-02-24T03:51:44.938Z,986.37
2023-02-24T03:52:44.907Z,986.38
2023-02-24T03:53:44.901Z,986.35
2023-02-24T03:54:44.880Z,986.36
2023-02-24T03:55:44.846Z,986.39
2023-02-24T03:56:44.832Z,986.39
2023-02-24T03:57:44.854Z,986.37
2023-02-24T03:58:44.864Z,986.31
2023-02-24T03:59:44.832Z,986.38
2023-02-24T04:00:44.798Z,986.32
2023-02-24T04:01:44.816Z,986.26
2023-02-24T04:02:44.872Z,986.38
2023-02-24T04:03:44.788Z,986.29
2023-02-24T04:04:44.811Z,986.40
2023-02-24T04:05:44.782Z,986.31
2023-02-24T04:06:44.756Z,986.31
2023-02-24T04:07:44.733Z,986.31
2023-02-24T04:08:44.765Z,986.29
2023-02-24T04:09:44.687Z,986.33
2023-02-24T04:10:44.698Z,986.30
2023-02-24T04:11:44.699Z,986.33
2023-02-24T04:12:44.764Z,986.36
2023-02-24T04:13:44.664Z,986.24
2023-02-24T04:14:44.664Z,986.26
2023-02-24T04:15:44.673Z,986.25
2023-02-24T04:16:44.665Z,986.23
2023-02-24T04:17:44.667Z,986.22
2023-02-24T04:18:44.651Z,986.22
2023-02-24T04:19:44.625Z,986.16
2023-02-24T04:20:44.606Z,986.24
2023-02-24T04:21:44.660Z,986.14
2023-02-24T04:22:44.600Z,986.09
2023-02-24T04:23:44.590Z,986.16
2023-02-24T04:24:44.585Z,986.13
2023-02-24T04:25:44.561Z,986.11
2023-02-24T04:26:44.608Z,986.06
2023-02-24T04:27:44.549Z,986.13
2023-02-24T04:28:44.562Z,986.12
2023-02-24T04:29:44.563Z,986.20
2023-02-24T04:30:44.631Z,986.11
2023-02-24T04:31:44.636Z,986.16
2023-02-24T04:32:44.551Z,986.12
2023-02-24T04:33:44.480Z,986.12
2023-02-24T04:34:44.504Z,986.12
2023-02-24T04:35:44.461Z,986.09
2023-02-24T04:36:44.456Z,986.08
2023-02-24T04:37:44.451Z,986.15
2023-02-24T04:38:44.488Z,986.03
2023-02-24T04:39:44.453Z,986.11
2023-02-24T04:40:44.414Z,986.00
2023-02-24T04:41:44.416Z,986.04
2023-02-24T04:42:45.409Z,985.99
2023-02-24T04:43:44.406Z,986.04
2023-02-24T04:44:44.405Z,985.97
2023-02-24T04:45:44.353Z,985.98
2023-02-24T04:46:44.473Z,986.01
2023-02-24T04:47:44.353Z,986.05
2023-02-24T04:48:44.342Z,986.00
2023-02-24T04:49:45.302Z,986.03
2023-02-24T04:50:44.311Z,986.02
2023-02-24T04:51:44.294Z,986.05
2023-02-24T04:52:44.321Z,986.00
2023-02-24T04:53:44.298Z,985.96
2023-02-24T04:54:44.281Z,985.94
2023-02-24T04:55:44.267Z,985.94
2023-02-24T04:56:44.268Z,985.95
2023-02-24T04:57:44.251Z,985.83
2023-02-24T04:58:44.238Z,985.83
2023-02-24T04:59:44.228Z,985.86
2023-02-24T05:00:44.226Z,985.77
2023-02-24T05:01:44.215Z,985.79
2023-02-24T05:02:45.198Z,985.78
2023-02-24T05:03:44.275Z,985.74
2023-02-24T05:04:44.267Z,985.69
2023-02-24T05:05:44.198Z,985.69
2023-02-24T05:06:44.247Z,985.74
2023-02-24T05:07:44.206Z,985.70
2023-02-24T05:08:44.204Z,985.74
2023-02-24T05:09:44.178Z,985.74
2023-02-24T05:10:44.184Z,985.76
2023-02-24T05:11:44.154Z,985.69
2023-02-24T05:12:44.118Z,985.76
2023-02-24T05:13:44.137Z,985.77
2023-02-24T05:14:44.126Z,985.75
2023-02-24T05:15:44.118Z,985.81
2023-02-24T05:16:44.107Z,985.81
2023-02-24T05:17:44.074Z,985.83
2023-02-24T05:18:44.080Z,985.89
2023-02-24T05:19:44.079Z,985.83
2023-02-24T05:20:44.053Z,985.84
2023-02-24T05:21:44.036Z,985.90
2023-02-24T05:22:44.038Z,985.81
2023-02-24T05:23:44.050Z,985.82
2023-02-24T05:24:44.014Z,985.80
2023-02-24T05:25:43.974Z,985.79
2023-02-24T05:26:44.022Z,985.79
2023-02-24T05:27:43.983Z,985.82
2023-02-24T05:28:43.988Z,985.82
2023-02-24T05:29:43.947Z,985.88
2023-02-24T05:30:43.991Z,985.80
2023-02-24T05:31:44.080Z,985.71
2023-02-24T05:32:43.958Z,985.73
2023-02-24T05:33:43.948Z,985.68
2023-02-24T05:34:43.888Z,985.75
2023-02-24T05:35:43.891Z,985.71
2023-02-24T05:36:43.905Z,985.67
2023-02-24T05:37:43.874Z,985.69
2023-02-24T05:38:43.885Z,985.64
2023-02-24T05:39:43.874Z,985.67
2023-02-24T05:40:43.865Z,985.66
2023-02-24T05:41:43.834Z,985.64
2023-02-24T05:42:43.801Z,985.68
2023-02-24T05:43:43.791Z,985.62
2023-02-24T05:44:43.783Z,985.71
2023-02-24T05:45:43.784Z,985.66
2023-02-24T05:46:43.896Z,985.73
2023-02-24T05:47:43.795Z,985.66
2023-02-24T05:48:43.809Z,985.67
2023-02-24T05:49:43.759Z,985.62
2023-02-24T05:50:43.733Z,985.73
2023-02-24T05:51:43.768Z,985.70
2023-02-24T05:52:43.734Z,985.67
2023-02-24T05:53:43.734Z,985.69
2023-02-24T05:54:43.713Z,985.64
2023-02-24T05:55:43.691Z,985.73
2023-02-24T05:56:43.761Z,985.67
2023-02-24T05:57:43.982Z,985.73
2023-02-24T05:58:43.945Z,985.58
2023-02-24T05:59:43.804Z,985.63
2023-02-24T06:00:43.676Z,985.57
2023-02-24T06:01:43.750Z,985.55
2023-02-24T06:02:43.704Z,985.59
2023-02-24T06:03:43.738Z,985.55
2023-02-24T06:04:43.686Z,985.57
2023-02-24T06:05:43.689Z,985.63
2023-02-24T06:06:43.632Z,985.66
2023-02-24T06:07:43.699Z,985.62
2023-02-24T06:08:43.740Z,985.67
2023-02-24T06:09:43.673Z,985.60
2023-02-24T06:10:43.618Z,985.55
2023-02-24T06:11:43.599Z,985.53
2023-02-24T06:12:43.617Z,985.61
2023-02-24T06:13:44.305Z,985.57
2023-02-24T06:14:43.636Z,985.53
2023-02-24T06:15:43.577Z,985.57
2023-02-24T06:16:43.651Z,985.58
2023-02-24T06:17:43.571Z,985.60
2023-02-24T06:18:44.080Z,985.67
2023-02-24T06:19:43.585Z,985.61
2023-02-24T06:20:43.570Z,985.60
2023-02-24T06:21:43.524Z,985.64
2023-02-24T06:22:43.543Z,985.57
2023-02-24T06:23:43.520Z,985.59
2023-02-24T06:24:43.461Z,985.55
2023-02-24T06:25:43.486Z,985.56
2023-02-24T06:26:43.960Z,985.53
2023-02-24T06:27:43.497Z,985.63
2023-02-24T06:28:43.582Z,985.50
2023-02-24T06:29:43.653Z,985.57
2023-02-24T06:30:43.498Z,985.58
2023-02-24T06:31:43.573Z,985.56
2023-02-24T06:32:43.589Z,985.63
2023-02-24T06:33:43.477Z,985.57
2023-02-24T06:34:43.372Z,985.63
2023-02-24T06:35:43.389Z,985.53
2023-02-24T06:36:43.260Z,985.51
2023-02-24T06:37:43.320Z,985.54
2023-02-24T06:38:43.248Z,985.55
2023-02-24T06:39:43.316Z,985.62
2023-02-24T06:40:43.312Z,985.46
2023-02-24T06:41:43.832Z,985.55
2023-02-24T06:42:43.314Z,985.51
2023-02-24T06:43:43.411Z,985.44
2023-02-24T06:44:43.301Z,985.50
2023-02-24T06:45:43.410Z,985.51
2023-02-24T06:46:43.415Z,985.50
2023-02-24T06:47:43.328Z,985.50
2023-02-24T06:48:43.198Z,985.53
2023-02-24T06:49:43.217Z,985.56
2023-02-24T06:50:43.150Z,985.63
2023-02-24T06:51:43.164Z,985.51
2023-02-24T06:52:43.122Z,985.48
2023-02-24T06:53:43.304Z,985.50
2023-02-24T06:54:43.150Z,985.58
2023-02-24T06:55:43.171Z,985.61
2023-02-24T06:56:43.224Z,985.51
2023-02-24T07:01:49.757Z,985.46
2023-02-24T07:02:10.033Z,985.57
2023-02-24T07:03:09.718Z,985.52
2023-02-24T07:17:06.663Z,985.57
2023-02-24T07:18:05.635Z,985.59
2023-02-24T07:19:05.628Z,985.47
2023-02-24T07:21:20.269Z,985.56
2023-02-24T07:21:21.106Z,985.47
2023-02-24T07:22:20.783Z,985.35
2023-02-24T07:23:20.836Z,985.37
2023-02-24T07:24:20.804Z,985.35
2023-02-24T07:25:20.750Z,985.27
2023-02-24T07:26:20.765Z,985.30
2023-02-24T07:27:20.729Z,985.19
2023-02-24T07:28:20.715Z,985.19
2023-02-24T07:29:20.705Z,985.23
2023-02-24T07:30:20.724Z,985.15
2023-02-24T07:31:21.102Z,985.18
2023-02-24T07:32:20.741Z,985.22
2023-02-24T07:33:20.692Z,985.27
2023-02-24T07:34:20.663Z,985.18
2023-02-24T07:35:20.641Z,985.10
2023-02-24T07:36:20.606Z,985.20
2023-02-24T07:37:20.777Z,985.16
2023-02-24T07:38:20.594Z,985.10
2023-02-24T07:39:20.594Z,985.08
2023-02-24T07:40:20.609Z,985.06
2023-02-24T07:41:20.861Z,985.04
2023-02-24T07:42:20.607Z,985.04
2023-02-24T07:43:20.521Z,985.07
2023-02-24T07:44:20.520Z,985.10
2023-02-24T07:45:20.599Z,985.02
2023-02-24T07:46:20.580Z,985.06
2023-02-24T07:47:20.503Z,985.15
2023-02-24T07:48:20.476Z,984.97
2023-02-24T07:49:20.478Z,985.10
2023-02-24T07:50:20.479Z,985.00
2023-02-24T07:51:20.598Z,984.99
2023-02-24T07:52:20.460Z,984.99
2023-02-24T07:53:20.417Z,985.00
2023-02-24T07:54:20.421Z,984.91
2023-02-24T07:55:20.409Z,984.99
2023-02-24T07:56:20.466Z,984.89
2023-02-24T07:57:20.379Z,984.84
2023-02-24T07:58:20.362Z,984.86
2023-02-24T07:59:20.365Z,984.88
2023-02-24T08:00:20.367Z,984.89
2023-02-24T08:01:20.544Z,984.77
2023-02-24T08:02:20.352Z,984.93
2023-02-24T08:03:20.328Z,984.86
2023-02-24T08:04:20.304Z,984.82
2023-02-24T08:05:20.363Z,984.90
2023-02-24T08:06:20.308Z,984.84
2023-02-24T08:07:20.293Z,984.90
2023-02-24T08:08:20.282Z,984.85
2023-02-24T08:09:20.308Z,984.88
2023-02-24T08:10:20.274Z,984.84
2023-02-24T08:11:20.462Z,984.86
2023-02-24T08:12:20.283Z,984.75
2023-02-24T08:13:20.259Z,984.83
2023-02-24T08:14:20.287Z,984.78
2023-02-24T08:15:20.328Z,984.81
2023-02-24T08:16:20.302Z,984.72
2023-02-24T08:17:20.289Z,984.75
2023-02-24T08:18:20.229Z,984.64
2023-02-24T08:19:20.231Z,984.70
2023-02-24T08:20:20.226Z,984.62
2023-02-24T08:21:20.453Z,984.71
2023-02-24T08:22:20.223Z,984.71
2023-02-24T08:23:20.286Z,984.64
2023-02-24T08:24:20.273Z,984.62
2023-02-24T08:25:20.171Z,984.73
2023-02-24T08:26:20.167Z,984.63
2023-02-24T08:27:20.198Z,984.61
2023-02-24T08:28:20.117Z,984.61
2023-02-24T08:29:20.112Z,984.64
2023-02-24T08:30:20.088Z,984.57
2023-02-24T08:31:20.630Z,984.49
2023-02-24T08:32:20.949Z,984.63
2023-02-24T08:33:20.008Z,984.55
2023-02-24T08:34:20.023Z,984.49
2023-02-24T08:35:19.999Z,984.58
2023-02-24T08:36:20.007Z,984.53
2023-02-24T08:37:20.006Z,984.49
2023-02-24T08:38:19.964Z,984.60
2023-02-24T08:39:19.973Z,984.59
2023-02-24T08:40:19.958Z,984.50
2023-02-24T08:41:20.604Z,984.37
2023-02-24T08:42:19.938Z,984.40
2023-02-24T08:43:19.904Z,984.33
2023-02-24T08:44:19.888Z,984.41
2023-02-24T08:45:19.963Z,984.33
2023-02-24T08:46:19.898Z,984.33
2023-02-24T08:47:19.868Z,984.25
2023-02-24T08:48:19.915Z,984.35
2023-02-24T08:49:20.646Z,984.35
2023-02-24T08:50:19.835Z,984.36
2023-02-24T08:51:20.209Z,984.19
2023-02-24T08:52:19.830Z,984.22
2023-02-24T08:53:19.813Z,984.19
2023-02-24T08:54:19.827Z,984.15
2023-02-24T08:55:19.797Z,984.16
2023-02-24T08:56:20.170Z,984.19
2023-02-24T08:57:19.777Z,984.07
2023-02-24T08:58:19.833Z,984.08
2023-02-24T08:59:19.759Z,984.09
2023-02-24T09:00:19.864Z,984.11
2023-02-24T09:01:20.350Z,984.02
2023-02-24T09:02:19.899Z,984.07
2023-02-24T09:03:19.739Z,984.00
2023-02-24T09:04:19.883Z,984.00
2023-02-24T09:05:19.689Z,984.02
2023-02-24T09:13:37.565Z,983.80
2023-02-24T09:14:37.441Z,983.77
2023-02-24T09:15:37.327Z,983.81
2023-02-24T09:21:32.286Z,983.60
2023-02-24T09:21:55.178Z,983.69
2023-02-24T09:22:55.166Z,983.58
2023-02-24T09:23:55.229Z,983.55
2023-02-24T09:24:55.193Z,983.54
2023-02-24T09:26:09.299Z,983.53
2023-02-24T09:26:55.119Z,983.54
2023-02-24T09:27:55.212Z,983.48
2023-02-24T09:28:55.236Z,983.42
2023-02-24T09:29:55.095Z,983.45
2023-02-24T09:30:55.197Z,983.46
2023-02-24T09:31:55.168Z,983.47
2023-02-24T09:32:55.202Z,983.34
2023-02-24T09:33:55.080Z,983.38
2023-02-24T09:34:55.077Z,983.36
2023-02-24T09:35:55.049Z,983.26
2023-02-24T09:36:55.055Z,983.29
2023-02-24T09:37:55.022Z,983.25
2023-02-24T09:38:55.050Z,983.24
2023-02-24T09:39:55.017Z,983.19
2023-02-24T09:40:54.977Z,983.22
2023-02-24T09:41:55.008Z,983.24
2023-02-24T09:42:55.004Z,983.13
2023-02-24T09:43:54.991Z,983.17
2023-02-24T09:44:54.973Z,983.12
2023-02-24T09:45:55.075Z,983.14
2023-02-24T09:46:55.000Z,983.15
2023-02-24T09:47:54.989Z,983.10
2023-02-24T09:48:54.985Z,983.07
2023-02-24T09:49:54.897Z,983.07
2023-02-24T09:51:03.345Z,983.02
2023-02-24T09:51:55.909Z,982.99
2023-02-24T09:53:00.098Z,983.03
2023-02-24T09:53:55.857Z,982.89
2023-02-24T09:54:54.904Z,983.00
2023-02-24T09:55:54.850Z,982.97
2023-02-24T09:56:54.841Z,982.95
2023-02-24T09:57:54.841Z,982.94
2023-02-24T09:58:54.814Z,982.84
2023-02-24T09:59:54.837Z,982.89
2023-02-24T10:00:54.795Z,982.95
2023-02-24T10:01:54.885Z,982.83
2023-02-24T10:02:54.748Z,982.75
2023-02-24T10:03:54.745Z,982.79
2023-02-24T10:04:54.752Z,982.79
2023-02-24T10:05:54.715Z,982.80
2023-02-24T10:06:54.717Z,982.82
2023-02-24T10:07:54.697Z,982.78
2023-02-24T10:08:54.708Z,982.64
2023-02-24T10:09:54.672Z,982.60
2023-02-24T10:10:54.708Z,982.61
2023-02-24T10:11:54.751Z,982.77
2023-02-24T10:12:54.664Z,982.57
2023-02-24T10:13:54.628Z,982.55
2023-02-24T10:15:00.499Z,982.54
2023-02-24T10:15:58.824Z,982.56
2023-02-24T10:16:54.645Z,982.55
2023-02-24T10:17:54.615Z,982.55
2023-02-24T10:18:54.621Z,982.44
2023-02-24T10:19:54.577Z,982.43
2023-02-24T10:20:54.606Z,982.46
2023-02-24T10:21:54.569Z,982.39
2023-02-24T10:22:54.530Z,982.38
2023-02-24T10:23:54.882Z,982.43
2023-02-24T10:24:54.550Z,982.32
2023-02-24T10:25:54.550Z,982.33
2023-02-24T10:27:00.817Z,982.34
2023-02-24T10:27:55.534Z,982.27
2023-02-24T10:28:54.476Z,982.23
2023-02-24T10:29:54.469Z,982.34
2023-02-24T10:30:54.566Z,982.23
2023-02-24T10:31:54.685Z,982.28
2023-02-24T10:32:54.484Z,982.24
2023-02-24T10:33:54.484Z,982.23
2023-02-24T10:34:54.466Z,982.28
2023-02-24T10:35:54.397Z,982.21
2023-02-24T10:36:54.423Z,982.23
2023-02-24T10:37:54.383Z,982.24
2023-02-24T10:38:54.385Z,982.20
2023-02-24T10:39:54.355Z,982.22
2023-02-24T10:40:54.389Z,982.16
2023-02-24T10:41:54.542Z,982.26
2023-02-24T10:42:54.342Z,982.17
2023-02-24T10:43:54.380Z,982.22
2023-02-24T10:45:01.930Z,982.24
2023-02-24T10:45:55.412Z,982.23
2023-02-24T10:46:54.343Z,982.20
2023-02-24T10:47:54.280Z,982.16
2023-02-24T10:48:54.278Z,982.17
2023-02-24T10:49:54.256Z,982.15
2023-02-24T10:50:56.190Z,982.23
2023-02-24T10:51:54.234Z,982.13
2023-02-24T10:52:54.241Z,982.14
2023-02-24T10:53:54.247Z,982.20
2023-02-24T10:54:54.263Z,982.12
2023-02-24T10:55:54.197Z,982.07
2023-02-24T10:56:54.223Z,982.12
2023-02-24T10:57:59.216Z,982.14
2023-02-24T10:58:55.150Z,982.07
2023-02-24T10:59:54.241Z,982.05
2023-02-24T11:00:54.137Z,982.06
2023-02-24T11:01:54.182Z,982.15
2023-02-24T11:02:54.184Z,982.06
2023-02-24T11:03:54.109Z,982.10
2023-02-24T11:04:54.224Z,982.13
2023-02-24T11:05:54.086Z,982.04
2023-02-24T11:06:54.061Z,981.97
2023-02-24T11:07:54.137Z,982.02
2023-02-24T11:08:54.054Z,982.09
2023-02-24T11:09:54.045Z,982.06
2023-02-24T11:10:54.010Z,981.98
2023-02-24T11:11:54.002Z,981.91
2023-02-24T11:13:04.113Z,981.78
2023-02-24T11:13:55.000Z,981.98
2023-02-24T11:14:53.975Z,981.96
2023-02-24T11:15:54.005Z,981.98
2023-02-24T11:16:53.969Z,981.95
2023-02-24T11:17:54.120Z,981.92
2023-02-24T11:18:53.931Z,981.90
2023-02-24T11:19:53.917Z,981.83
2023-02-24T11:20:53.916Z,981.85
2023-02-24T11:21:53.892Z,981.90
2023-02-24T11:22:53.899Z,981.81
2023-02-24T11:23:53.866Z,981.73
2023-02-24T11:24:53.863Z,981.77
2023-02-24T11:25:53.850Z,981.61
2023-02-24T11:26:53.843Z,981.78
2023-02-24T11:27:53.874Z,981.73
2023-02-24T11:28:53.820Z,981.78
2023-02-24T11:29:53.808Z,981.69
2023-02-24T11:30:53.881Z,981.71
2023-02-24T11:31:53.985Z,981.71
2023-02-24T11:32:53.872Z,981.70
2023-02-24T11:33:53.807Z,981.66
2023-02-24T11:34:53.767Z,981.68
2023-02-24T11:35:53.755Z,981.61
2023-02-24T11:36:53.760Z,981.52
2023-02-24T11:37:53.739Z,981.59
2023-02-24T11:38:53.715Z,981.62
2023-02-24T11:39:53.716Z,981.62
2023-02-24T11:40:53.786Z,981.63
2023-02-24T11:41:53.684Z,981.57
2023-02-24T11:42:53.717Z,981.59
2023-02-24T11:43:53.705Z,981.57
2023-02-24T11:44:53.679Z,981.60
2023-02-24T11:45:53.634Z,981.59
2023-02-24T11:46:53.624Z,981.35
2023-02-24T11:47:54.803Z,981.53
2023-02-24T11:48:54.798Z,981.39
2023-02-24T11:49:54.789Z,981.64
2023-02-24T11:50:54.731Z,981.49
2023-02-24T11:51:54.782Z,981.45
2023-02-24T11:52:54.711Z,981.45
2023-02-24T11:53:54.794Z,981.46
2023-02-24T11:54:54.765Z,981.49
2023-02-24T11:55:54.714Z,981.52
2023-02-24T11:56:54.681Z,981.46
2023-02-24T11:57:54.708Z,981.43
2023-02-24T11:58:54.689Z,981.48
2023-02-24T11:59:54.692Z,981.42
2023-02-24T12:00:54.640Z,981.48
2023-02-24T12:01:54.657Z,981.42
2023-02-24T12:02:54.686Z,981.30
2023-02-24T12:03:54.669Z,981.37
2023-02-24T12:04:54.645Z,981.23
2023-02-24T12:05:54.756Z,981.26
2023-02-24T12:06:54.620Z,981.27
2023-02-24T12:07:54.651Z,981.28
2023-02-24T12:08:54.596Z,981.23
2023-02-24T12:10:00.335Z,981.27
2023-02-24T12:10:56.586Z,981.25
2023-02-24T12:11:54.607Z,981.24
2023-02-24T12:12:54.558Z,981.26
2023-02-24T12:13:54.573Z,981.13
2023-02-24T12:14:54.543Z,981.24
2023-02-24T12:15:54.563Z,981.18
2023-02-24T12:16:54.527Z,981.20
2023-02-24T12:17:54.530Z,981.19
2023-02-24T12:18:54.507Z,981.19
2023-02-24T12:19:54.493Z,981.11
2023-02-24T12:20:54.500Z,981.18
2023-02-24T12:21:54.469Z,981.07
2023-02-24T12:22:54.432Z,981.13
2023-02-24T12:23:54.464Z,981.06
2023-02-24T12:24:54.433Z,981.06
2023-02-24T12:25:54.412Z,981.03
2023-02-24T12:26:54.401Z,981.08
2023-02-24T12:27:54.346Z,981.06
2023-02-24T12:28:54.401Z,981.00
2023-02-24T12:29:54.326Z,981.02
2023-02-24T12:30:54.490Z,980.95
2023-02-24T12:31:54.468Z,980.96
2023-02-24T12:32:54.342Z,981.02
2023-02-24T12:33:54.302Z,980.95
2023-02-24T12:34:55.261Z,980.95
2023-02-24T12:35:54.337Z,980.92
2023-02-24T12:36:54.276Z,981.00
2023-02-24T12:37:54.269Z,980.93
2023-02-24T12:38:54.294Z,980.96
2023-02-24T12:39:54.257Z,980.95
2023-02-24T12:40:54.297Z,981.01
2023-02-24T12:41:54.218Z,981.06
2023-02-24T12:42:54.215Z,980.87
2023-02-24T12:43:54.193Z,980.90
2023-02-24T12:44:54.206Z,980.83
2023-02-24T12:45:54.156Z,980.78
2023-02-24T12:46:54.131Z,980.79
2023-02-24T12:47:56.433Z,980.77
2023-02-24T12:48:54.135Z,980.79
2023-02-24T12:49:54.154Z,980.82
2023-02-24T12:50:54.126Z,980.74
2023-02-24T12:51:54.168Z,980.77
2023-02-24T12:52:54.179Z,980.69
2023-02-24T12:53:56.111Z,980.67
2023-02-24T12:54:54.120Z,980.68
2023-02-24T12:55:54.134Z,980.78
2023-02-24T12:56:54.161Z,980.74
2023-02-24T12:57:54.134Z,980.71
2023-02-24T12:58:54.138Z,980.70
2023-02-24T12:59:56.437Z,980.71
2023-02-24T13:00:54.089Z,980.70
2023-02-24T13:01:54.161Z,980.65
2023-02-24T13:02:54.063Z,980.67
2023-02-24T13:03:54.092Z,980.70
2023-02-24T13:04:54.052Z,980.66
2023-02-24T13:05:54.021Z,980.63
2023-02-24T13:06:54.212Z,980.59
2023-02-24T13:07:54.063Z,980.58